sensor_id;sensor_type;location;lat;lon;timestamp;pressure;altitude;pressure_sealevel;temperature;humidity
22572;BME280;11452;53.368;14.658;2023-05-12T10:06:36;101559.19;;;22.84;28.06
22572;BME280;11452;53.368;14.658;2023-05-12T10:11:42;101552.37;;;22.26;28.37
22572;BME280;11452;53.368;14.658;2023-05-12T10:16:49;101559.69;;;22.25;28.28
22572;BME280;11452;53.368;14.658;2023-05-12T10:21:57;101568.14;;;22.22;28.59
22572;BME280;11452;53.368;14.658;2023-05-12T10:27:04;101554.30;;;22.20;28.43
22572;BME280;11452;53.368;14.658;2023-05-12T10:32:10;101543.77;;;22.40;28.80
22572;BME280;11452;53.368;14.658;2023-05-12T10:37:15;101544.63;;;22.50;28.82
22572;BME280;11452;53.368;14.658;2023-05-12T10:42:23;101543.75;;;22.30;28.58
22572;BME280;11452;53.368;14.658;2023-05-12T10:47:36;101543.98;;;22.52;28.98
22572;BME280;11452;53.368;14.658;2023-05-12T10:52:55;101542.84;;;22.55;28.79
22572;BME280;11452;53.368;14.658;2023-05-12T10:58:11;101543.89;;;22.67;29.23
22572;BME280;11452;53.368;14.658;2023-05-12T11:03:27;101542.81;;;22.64;28.78
22572;BME280;11452;53.368;14.658;2023-05-12T11:08:28;101545.20;;;22.54;28.90
22572;BME280;11452;53.368;14.658;2023-05-12T11:13:38;101535.65;;;22.73;29.14
22572;BME280;11452;53.368;14.658;2023-05-12T11:18:44;101531.23;;;22.82;29.09
22572;BME280;11452;53.368;14.658;2023-05-12T11:23:50;101539.95;;;22.85;29.77
22572;BME280;11452;53.368;14.658;2023-05-12T11:28:59;101531.48;;;22.98;29.43
22572;BME280;11452;53.368;14.658;2023-05-12T11:34:07;101535.25;;;23.01;29.59
22572;BME280;11452;53.368;14.658;2023-05-12T11:39:18;101534.31;;;23.06;29.21
22572;BME280;11452;53.368;14.658;2023-05-12T11:44:27;101537.16;;;23.00;29.15
22572;BME280;11452;53.368;14.658;2023-05-12T11:49:32;101539.84;;;23.10;29.08
22572;BME280;11452;53.368;14.658;2023-05-12T11:54:39;101533.21;;;22.89;28.77
22572;BME280;11452;53.368;14.658;2023-05-12T11:59:48;101544.73;;;23.06;28.75
22572;BME280;11452;53.368;14.658;2023-05-12T12:04:55;101544.01;;;23.04;28.24
22572;BME280;11452;53.368;14.658;2023-05-12T12:10:11;101535.48;;;23.27;28.01
22572;BME280;11452;53.368;14.658;2023-05-12T12:15:17;101533.17;;;23.32;28.02
22572;BME280;11452;53.368;14.658;2023-05-12T12:20:23;101534.75;;;23.34;27.25
22572;BME280;11452;53.368;14.658;2023-05-12T12:25:29;101546.23;;;23.38;27.41
22572;BME280;11452;53.368;14.658;2023-05-12T12:30:35;101540.54;;;23.59;27.26
22572;BME280;11452;53.368;14.658;2023-05-12T12:35:40;101534.04;;;23.69;27.19
22572;BME280;11452;53.368;14.658;2023-05-12T12:40:46;101529.88;;;23.79;27.18
22572;BME280;11452;53.368;14.658;2023-05-12T12:45:52;101535.89;;;23.82;27.14
22572;BME280;11452;53.368;14.658;2023-05-12T12:50:58;101534.47;;;23.78;27.16
22572;BME280;11452;53.368;14.658;2023-05-12T12:56:04;101520.78;;;23.61;26.95
22572;BME280;11452;53.368;14.658;2023-05-12T13:01:10;101521.98;;;23.76;27.33
22572;BME280;11452;53.368;14.658;2023-05-12T13:06:15;101522.08;;;23.57;26.94
22572;BME280;11452;53.368;14.658;2023-05-12T13:11:21;101522.23;;;23.82;27.07
22572;BME280;11452;53.368;14.658;2023-05-12T13:16:27;101529.02;;;23.92;26.55
22572;BME280;11452;53.368;14.658;2023-05-12T13:21:33;101514.68;;;23.94;26.10
22572;BME280;11452;53.368;14.658;2023-05-12T13:26:39;101528.39;;;23.98;26.00
22572;BME280;11452;53.368;14.658;2023-05-12T13:31:44;101517.46;;;24.12;25.81
22572;BME280;11452;53.368;14.658;2023-05-12T13:36:50;101521.31;;;24.05;25.60
22572;BME280;11452;53.368;14.658;2023-05-12T13:41:55;101513.51;;;24.24;25.66
22572;BME280;11452;53.368;14.658;2023-05-12T13:47:01;101509.09;;;24.45;25.46
22572;BME280;11452;53.368;14.658;2023-05-12T13:52:07;101513.56;;;24.68;25.57
22572;BME280;11452;53.368;14.658;2023-05-12T13:57:13;101511.58;;;24.38;25.30
22572;BME280;11452;53.368;14.658;2023-05-12T14:02:19;101499.27;;;24.56;25.13
22572;BME280;11452;53.368;14.658;2023-05-12T14:07:24;101504.49;;;24.49;24.63
22572;BME280;11452;53.368;14.658;2023-05-12T14:12:30;101504.34;;;24.51;24.55
22572;BME280;11452;53.368;14.658;2023-05-12T14:17:35;101497.95;;;24.42;24.36
22572;BME280;11452;53.368;14.658;2023-05-12T14:22:41;101501.09;;;24.47;24.70
22572;BME280;11452;53.368;14.658;2023-05-12T14:27:46;101495.44;;;24.71;24.55
22572;BME280;11452;53.368;14.658;2023-05-12T14:32:52;101497.90;;;24.56;24.52
22572;BME280;11452;53.368;14.658;2023-05-12T14:37:57;101501.02;;;24.61;24.26
22572;BME280;11452;53.368;14.658;2023-05-12T14:43:03;101508.25;;;24.66;24.48
22572;BME280;11452;53.368;14.658;2023-05-12T14:48:09;101509.16;;;24.75;24.32
22572;BME280;11452;53.368;14.658;2023-05-12T14:53:15;101507.31;;;24.79;24.27
22572;BME280;11452;53.368;14.658;2023-05-12T14:58:20;101499.27;;;24.78;23.99
22572;BME280;11452;53.368;14.658;2023-05-12T15:03:27;101501.70;;;25.03;24.38
22572;BME280;11452;53.368;14.658;2023-05-12T15:08:33;101499.59;;;24.97;23.95
22572;BME280;11452;53.368;14.658;2023-05-12T15:13:39;101499.53;;;24.93;23.68
22572;BME280;11452;53.368;14.658;2023-05-12T15:18:44;101500.33;;;25.07;23.57
22572;BME280;11452;53.368;14.658;2023-05-12T15:23:50;101499.16;;;25.09;23.49
22572;BME280;11452;53.368;14.658;2023-05-12T15:28:56;101493.48;;;25.33;23.50
22572;BME280;11452;53.368;14.658;2023-05-12T15:34:01;101498.48;;;25.41;23.19
22572;BME280;11452;53.368;14.658;2023-05-12T15:39:07;101487.33;;;25.35;22.92
22572;BME280;11452;53.368;14.658;2023-05-12T15:44:13;101498.97;;;25.71;23.00
22572;BME280;11452;53.368;14.658;2023-05-12T15:49:20;101508.50;;;26.13;23.40
22572;BME280;11452;53.368;14.658;2023-05-12T15:54:25;101501.64;;;27.18;24.48
22572;BME280;11452;53.368;14.658;2023-05-12T15:59:31;101510.63;;;28.90;23.44
22572;BME280;11452;53.368;14.658;2023-05-12T16:04:37;101505.55;;;30.33;22.46
22572;BME280;11452;53.368;14.658;2023-05-12T16:09:42;101505.41;;;30.51;21.73
22572;BME280;11452;53.368;14.658;2023-05-12T16:14:49;101505.44;;;31.28;21.14
22572;BME280;11452;53.368;14.658;2023-05-12T16:19:55;101509.33;;;32.43;20.37
22572;BME280;11452;53.368;14.658;2023-05-12T16:25:01;101513.16;;;33.14;18.60
22572;BME280;11452;53.368;14.658;2023-05-12T16:30:09;101510.11;;;33.00;18.77
22572;BME280;11452;53.368;14.658;2023-05-12T16:35:16;101504.72;;;34.34;18.00
22572;BME280;11452;53.368;14.658;2023-05-12T16:40:23;101508.59;;;34.49;17.19
22572;BME280;11452;53.368;14.658;2023-05-12T16:45:29;101510.43;;;34.23;16.43
22572;BME280;11452;53.368;14.658;2023-05-12T16:50:34;101510.77;;;34.02;16.71
22572;BME280;11452;53.368;14.658;2023-05-12T16:55:40;101513.30;;;34.32;16.74
22572;BME280;11452;53.368;14.658;2023-05-12T17:00:45;101509.61;;;33.23;15.81
22572;BME280;11452;53.368;14.658;2023-05-12T17:05:51;101512.30;;;33.33;16.15
22572;BME280;11452;53.368;14.658;2023-05-12T17:10:56;101511.48;;;32.87;15.56
22572;BME280;11452;53.368;14.658;2023-05-12T17:16:02;101506.56;;;32.06;14.88
22572;BME280;11452;53.368;14.658;2023-05-12T17:21:07;101507.56;;;30.88;15.33
22572;BME280;11452;53.368;14.658;2023-05-12T17:26:15;101518.67;;;30.09;15.71
22572;BME280;11452;53.368;14.658;2023-05-12T17:31:20;101516.19;;;29.15;15.96
22572;BME280;11452;53.368;14.658;2023-05-12T17:36:26;101525.45;;;28.16;16.45
22572;BME280;11452;53.368;14.658;2023-05-12T17:41:32;101529.02;;;27.59;16.88
22572;BME280;11452;53.368;14.658;2023-05-12T17:46:38;101533.25;;;26.94;17.31
22572;BME280;11452;53.368;14.658;2023-05-12T17:51:43;101529.82;;;26.47;17.74
22572;BME280;11452;53.368;14.658;2023-05-12T17:56:49;101535.02;;;26.04;18.17
22572;BME280;11452;53.368;14.658;2023-05-12T18:01:54;101536.44;;;25.66;18.75
22572;BME280;11452;53.368;14.658;2023-05-12T18:07:02;101538.23;;;25.53;19.23
22572;BME280;11452;53.368;14.658;2023-05-12T18:12:08;101534.19;;;25.32;19.41
22572;BME280;11452;53.368;14.658;2023-05-12T18:17:13;101542.20;;;24.81;19.55
22572;BME280;11452;53.368;14.658;2023-05-12T18:22:20;101542.26;;;24.50;19.94
22572;BME280;11452;53.368;14.658;2023-05-12T18:27:25;101552.34;;;24.18;20.30
22572;BME280;11452;53.368;14.658;2023-05-12T18:32:31;101551.21;;;23.79;20.62
22572;BME280;11452;53.368;14.658;2023-05-12T18:37:37;101554.92;;;23.51;20.97
22572;BME280;11452;53.368;14.658;2023-05-12T18:42:42;101564.02;;;23.19;21.29
22572;BME280;11452;53.368;14.658;2023-05-12T18:47:49;101570.31;;;22.86;21.65
22572;BME280;11452;53.368;14.658;2023-05-12T18:52:55;101582.29;;;22.60;21.96
22572;BME280;11452;53.368;14.658;2023-05-12T18:58:00;101584.03;;;22.27;22.32
22572;BME280;11452;53.368;14.658;2023-05-12T19:03:06;101588.80;;;22.00;22.73
22572;BME280;11452;53.368;14.658;2023-05-12T19:08:12;101390.97;;;20.55;23.14
22572;BME280;11452;53.368;14.658;2023-05-12T19:13:17;101606.19;;;21.48;23.58
22572;BME280;11452;53.368;14.658;2023-05-12T19:18:24;101613.63;;;21.19;24.12
22572;BME280;11452;53.368;14.658;2023-05-12T19:23:30;101618.99;;;20.94;24.67
22572;BME280;11452;53.368;14.658;2023-05-12T19:28:36;101619.97;;;20.67;25.29
22572;BME280;11452;53.368;14.658;2023-05-12T19:33:41;101626.01;;;20.38;25.85
22572;BME280;11452;53.368;14.658;2023-05-12T19:38:47;101626.14;;;20.09;26.44
22572;BME280;11452;53.368;14.658;2023-05-12T19:43:53;101637.51;;;19.86;26.98
22572;BME280;11452;53.368;14.658;2023-05-12T19:48:59;101641.36;;;19.61;27.53
22572;BME280;11452;53.368;14.658;2023-05-12T19:54:05;101632.17;;;19.40;28.09
22572;BME280;11452;53.368;14.658;2023-05-12T19:59:13;101632.12;;;19.18;28.65
22572;BME280;11452;53.368;14.658;2023-05-12T20:04:18;101645.63;;;19.01;29.00
22572;BME280;11452;53.368;14.658;2023-05-12T20:09:24;101647.30;;;18.85;29.57
22572;BME280;11452;53.368;14.658;2023-05-12T20:14:30;101641.06;;;18.66;30.05
22572;BME280;11452;53.368;14.658;2023-05-12T20:19:36;101644.64;;;18.49;30.56
22572;BME280;11452;53.368;14.658;2023-05-12T20:24:43;101646.55;;;18.36;31.03
22572;BME280;11452;53.368;14.658;2023-05-12T20:29:49;101649.87;;;18.21;31.51
22572;BME280;11452;53.368;14.658;2023-05-12T20:34:55;101644.99;;;18.08;31.89
22572;BME280;11452;53.368;14.658;2023-05-12T20:40:00;101647.73;;;17.95;32.15
22572;BME280;11452;53.368;14.658;2023-05-12T20:45:07;101655.61;;;17.80;32.75
22572;BME280;11452;53.368;14.658;2023-05-12T20:50:13;101653.48;;;17.65;33.13
22572;BME280;11452;53.368;14.658;2023-05-12T20:55:20;101660.61;;;17.53;33.58
22572;BME280;11452;53.368;14.658;2023-05-12T21:00:26;101670.77;;;17.37;33.97
22572;BME280;11452;53.368;14.658;2023-05-12T21:05:32;101668.94;;;17.25;34.48
22572;BME280;11452;53.368;14.658;2023-05-12T21:10:38;101666.27;;;17.18;34.81
22572;BME280;11452;53.368;14.658;2023-05-12T21:15:43;101672.77;;;17.08;35.17
22572;BME280;11452;53.368;14.658;2023-05-12T21:20:50;101672.64;;;16.97;35.50
22572;BME280;11452;53.368;14.658;2023-05-12T21:25:56;101681.11;;;16.85;35.87
22572;BME280;11452;53.368;14.658;2023-05-12T21:31:02;101687.87;;;16.78;36.08
22572;BME280;11452;53.368;14.658;2023-05-12T21:36:07;101686.48;;;16.66;36.46
22572;BME280;11452;53.368;14.658;2023-05-12T21:41:13;101695.66;;;16.63;36.85
22572;BME280;11452;53.368;14.658;2023-05-12T21:46:18;101691.39;;;16.52;37.08
22572;BME280;11452;53.368;14.658;2023-05-12T21:51:24;101689.41;;;16.41;37.35
22572;BME280;11452;53.368;14.658;2023-05-12T21:56:30;101695.78;;;16.33;37.64
22572;BME280;11452;53.368;14.658;2023-05-12T22:01:35;101698.61;;;16.24;37.82
22572;BME280;11452;53.368;14.658;2023-05-12T22:06:41;101697.64;;;16.18;38.12
22572;BME280;11452;53.368;14.658;2023-05-12T22:11:47;101699.89;;;16.12;38.32
22572;BME280;11452;53.368;14.658;2023-05-12T22:16:52;101699.50;;;16.04;38.64
22572;BME280;11452;53.368;14.658;2023-05-12T22:21:59;101693.81;;;16.01;38.83
22572;BME280;11452;53.368;14.658;2023-05-12T22:27:05;101697.08;;;15.99;38.94
22572;BME280;11452;53.368;14.658;2023-05-12T22:32:11;101692.20;;;15.91;39.09
22572;BME280;11452;53.368;14.658;2023-05-12T22:37:16;101702.01;;;15.85;39.22
22572;BME280;11452;53.368;14.658;2023-05-12T22:42:21;101704.20;;;15.79;39.55
22572;BME280;11452;53.368;14.658;2023-05-12T22:47:27;101699.20;;;15.80;39.76
22572;BME280;11452;53.368;14.658;2023-05-12T22:52:35;101694.13;;;15.75;39.99
22572;BME280;11452;53.368;14.658;2023-05-12T22:57:54;101704.91;;;15.75;40.08
22572;BME280;11452;53.368;14.658;2023-05-12T23:03:01;101712.20;;;15.66;40.29
22572;BME280;11452;53.368;14.658;2023-05-12T23:08:08;101709.39;;;15.61;40.49
22572;BME280;11452;53.368;14.658;2023-05-12T23:13:14;101711.22;;;15.60;40.75
22572;BME280;11452;53.368;14.658;2023-05-12T23:18:20;101706.14;;;15.55;41.01
22572;BME280;11452;53.368;14.658;2023-05-12T23:23:26;101714.86;;;15.52;41.06
22572;BME280;11452;53.368;14.658;2023-05-12T23:28:31;101704.05;;;15.45;41.42
22572;BME280;11452;53.368;14.658;2023-05-12T23:33:37;101705.97;;;15.43;41.61
22572;BME280;11452;53.368;14.658;2023-05-12T23:38:43;101700.88;;;15.45;41.68
22572;BME280;11452;53.368;14.658;2023-05-12T23:43:49;101704.05;;;15.45;41.63
22572;BME280;11452;53.368;14.658;2023-05-12T23:48:55;101705.79;;;15.46;41.52
22572;BME280;11452;53.368;14.658;2023-05-12T23:54:02;101704.05;;;15.45;41.42
22572;BME280;11452;53.368;14.658;2023-05-12T23:59:07;101701.27;;;15.46;41.31
